createdAt,value
2022-11-20T00:00:51.400Z,100029.00
2022-11-20T00:03:41.394Z,100022.00
2022-11-20T00:06:32.314Z,100042.00
2022-11-20T00:09:22.380Z,100034.00
2022-11-20T00:12:07.561Z,100028.00
2022-11-20T00:14:56.029Z,100008.00
2022-11-20T00:17:41.392Z,100004.00
2022-11-20T00:20:23.995Z,100027.00
2022-11-20T00:23:20.036Z,100011.00
2022-11-20T00:25:58.442Z,100012.00
2022-11-20T00:28:37.662Z,99966.00
2022-11-20T00:31:17.025Z,99945.00
2022-11-20T00:34:07.221Z,100011.00
2022-11-20T00:36:49.540Z,99924.00
2022-11-20T00:39:25.163Z,100001.00
2022-11-20T00:42:08.519Z,99954.00
2022-11-20T00:44:50.991Z,100012.00
2022-11-20T00:47:34.234Z,100027.00
2022-11-20T00:50:18.590Z,100005.00
2022-11-20T00:52:54.850Z,100014.00
2022-11-20T00:55:39.694Z,100005.00
2022-11-20T00:58:19.281Z,99975.00
2022-11-20T01:01:35.781Z,100011.00
2022-11-20T01:04:26.552Z,99968.00
2022-11-20T01:07:06.094Z,99961.00
2022-11-20T01:09:42.945Z,100003.00
2022-11-20T01:12:48.524Z,100004.00
2022-11-20T01:15:35.631Z,100004.00
2022-11-20T01:18:17.618Z,99938.00
2022-11-20T01:21:22.085Z,99970.00
2022-11-20T01:24:00.278Z,100011.00
2022-11-20T01:26:47.922Z,100004.00
2022-11-20T01:29:35.839Z,99967.00
2022-11-20T01:32:27.656Z,99927.00
2022-11-20T01:35:36.007Z,100015.00
2022-11-20T01:38:23.939Z,99911.00
2022-11-20T01:41:27.437Z,99968.00
2022-11-20T01:44:22.129Z,99991.00
2022-11-20T01:50:36.105Z,99920.00
2022-11-20T01:54:27.247Z,99911.00
2022-11-20T02:01:20.689Z,99929.00
2022-11-20T02:04:35.784Z,99922.00
2022-11-20T02:07:31.000Z,99996.00
2022-11-20T02:10:23.738Z,99977.00
2022-11-20T02:13:51.893Z,99906.00
2022-11-20T02:16:57.960Z,99899.00
2022-11-20T02:22:45.737Z,99961.00
2022-11-20T02:25:42.561Z,99876.00
2022-11-20T02:28:36.739Z,99866.00
2022-11-20T02:31:18.150Z,99917.00
2022-11-20T02:34:04.643Z,99880.00
2022-11-20T02:37:10.708Z,99959.00
2022-11-20T02:40:15.642Z,99909.00
2022-11-20T02:43:04.159Z,99958.00
2022-11-20T02:46:15.126Z,99872.00
2022-11-20T02:48:51.745Z,99967.00
2022-11-20T02:51:36.425Z,99947.00
2022-11-20T02:54:17.276Z,99898.00
2022-11-20T02:57:38.790Z,99958.00
2022-11-20T03:00:34.623Z,99956.00
2022-11-20T03:03:19.582Z,99964.00
2022-11-20T03:06:12.671Z,99873.00
2022-11-20T03:08:49.544Z,99838.00
2022-11-20T03:11:35.325Z,99932.00
2022-11-20T03:14:24.083Z,99871.00
2022-11-20T03:18:12.549Z,99940.00
2022-11-20T03:20:55.031Z,99943.00
2022-11-20T03:23:47.258Z,99843.00
2022-11-20T03:26:40.414Z,99842.00
2022-11-20T03:29:38.999Z,99931.00
2022-11-20T03:35:54.206Z,99946.00
2022-11-20T03:38:44.220Z,99846.00
2022-11-20T03:41:40.213Z,99878.00
2022-11-20T03:44:23.639Z,99861.00
2022-11-20T03:47:19.223Z,99943.00
2022-11-20T03:50:17.361Z,99924.00
2022-11-20T03:53:04.445Z,99869.00
2022-11-20T03:55:53.795Z,99928.00
2022-11-20T03:58:36.051Z,99842.00
2022-11-20T04:03:18.198Z,99910.00
2022-11-20T04:05:45.722Z,99923.00
2022-11-20T04:08:31.213Z,99930.00
2022-11-20T04:11:59.761Z,99839.00
2022-11-20T04:14:59.302Z,99904.00
2022-11-20T04:18:07.359Z,99929.00
2022-11-20T04:20:53.814Z,99939.00
2022-11-20T04:27:04.712Z,99907.00
2022-11-20T04:29:51.410Z,99839.00
2022-11-20T04:32:27.680Z,99916.00
2022-11-20T04:35:05.579Z,99917.00
2022-11-20T04:38:05.280Z,99849.00
2022-11-20T04:40:55.876Z,99918.00
2022-11-20T04:43:38.385Z,99939.00
2022-11-20T04:46:43.120Z,99929.00
2022-11-20T04:49:23.325Z,99822.00
2022-11-20T04:52:11.717Z,99930.00
2022-11-20T04:55:24.446Z,99895.00
2022-11-20T04:58:00.105Z,99896.00
2022-11-20T05:00:53.350Z,99910.00
2022-11-20T05:03:31.552Z,99917.00
2022-11-20T05:06:10.394Z,99850.00
2022-11-20T05:09:17.869Z,99914.00
2022-11-20T05:12:30.160Z,99872.00
2022-11-20T05:15:10.327Z,99935.00
2022-11-20T05:17:56.437Z,99884.00
2022-11-20T05:20:42.126Z,99907.00
2022-11-20T05:23:39.090Z,99923.00
2022-11-20T05:26:57.426Z,99941.00
2022-11-20T05:29:37.964Z,99915.00
2022-11-20T05:32:24.789Z,99911.00
2022-11-20T05:35:08.741Z,99863.00
2022-11-20T05:37:48.889Z,99908.00
2022-11-20T05:40:45.825Z,99923.00
2022-11-20T05:43:30.086Z,99829.00
2022-11-20T05:46:38.324Z,99935.00
2022-11-20T05:49:27.889Z,99920.00
2022-11-20T05:52:07.600Z,99862.00
2022-11-20T05:55:00.061Z,99915.00
2022-11-20T05:58:06.729Z,99858.00
2022-11-20T06:00:46.942Z,99929.00
2022-11-20T06:03:29.185Z,99849.00
2022-11-20T06:09:21.200Z,99887.00
2022-11-20T06:12:09.119Z,99911.00
2022-11-20T06:14:44.648Z,99839.00
2022-11-20T06:17:28.659Z,99843.00
2022-11-20T06:20:25.305Z,99906.00
2022-11-20T06:23:14.810Z,99846.00
2022-11-20T06:25:52.307Z,99901.00
2022-11-20T06:28:32.640Z,99915.00
2022-11-20T06:31:12.679Z,99847.00
2022-11-20T06:33:50.421Z,99887.00
2022-11-20T06:36:31.758Z,99921.00
2022-11-20T06:39:21.748Z,99847.00
2022-11-20T06:41:59.218Z,99907.00
2022-11-20T06:44:35.523Z,99898.00
2022-11-20T06:47:14.454Z,99925.00
2022-11-20T06:49:51.836Z,99922.00
2022-11-20T06:52:32.169Z,99933.00
2022-11-20T06:55:08.679Z,99892.00
2022-11-20T06:57:44.829Z,99933.00
2022-11-20T07:00:42.309Z,99916.00
2022-11-20T07:03:20.808Z,99858.00
2022-11-20T07:06:10.076Z,99859.00
2022-11-20T07:08:49.998Z,99936.00
2022-11-20T07:11:30.875Z,99920.00
2022-11-20T07:14:07.442Z,99930.00
2022-11-20T07:16:47.352Z,99922.00
2022-11-20T07:19:28.366Z,99910.00
2022-11-20T07:22:04.339Z,99861.00
2022-11-20T07:25:05.898Z,99958.00
2022-11-20T07:27:47.736Z,99881.00
2022-11-20T07:30:25.918Z,99958.00
2022-11-20T07:33:03.998Z,99931.00
2022-11-20T07:35:40.648Z,99925.00
2022-11-20T07:38:40.155Z,99948.00
2022-11-20T07:41:31.476Z,99848.00
2022-11-20T07:48:02.694Z,99878.00
2022-11-20T07:50:38.601Z,99902.00
2022-11-20T07:53:14.461Z,99933.00
2022-11-20T07:56:42.536Z,99885.00
2022-11-20T07:59:41.034Z,99909.00
2022-11-20T08:04:26.936Z,99934.00
2022-11-20T08:07:06.931Z,99924.00
2022-11-20T08:11:07.125Z,99880.00
2022-11-20T08:14:05.490Z,99883.00
2022-11-20T08:16:45.065Z,99884.00
2022-11-20T08:19:26.411Z,99949.00
2022-11-20T08:22:28.272Z,99871.00
2022-11-20T08:25:06.288Z,99900.00
2022-11-20T08:27:55.406Z,99929.00
2022-11-20T08:30:47.917Z,99856.00
2022-11-20T08:33:47.598Z,99941.00
2022-11-20T08:36:38.949Z,99892.00
2022-11-20T08:39:56.661Z,99825.00
2022-11-20T08:42:54.845Z,99878.00
2022-11-20T08:45:35.430Z,99868.00
2022-11-20T08:48:17.887Z,99931.00
2022-11-20T08:51:02.508Z,99934.00
2022-11-20T08:53:59.881Z,99891.00
2022-11-20T08:56:53.491Z,99865.00
2022-11-20T09:00:05.082Z,99917.00
2022-11-20T09:02:57.932Z,99927.00
2022-11-20T09:05:44.128Z,99906.00
2022-11-20T09:08:18.407Z,99866.00
2022-11-20T09:10:58.833Z,99875.00
2022-11-20T09:13:39.647Z,99885.00
2022-11-20T09:16:45.606Z,99937.00
2022-11-20T09:19:38.241Z,99874.00
2022-11-20T09:22:23.684Z,99879.00
2022-11-20T09:25:03.516Z,99869.00
2022-11-20T09:27:54.068Z,99924.00
2022-11-20T09:30:39.450Z,99869.00
2022-11-20T09:33:28.916Z,99916.00
2022-11-20T09:36:08.788Z,99851.00
2022-11-20T09:38:52.135Z,99818.00
2022-11-20T09:41:59.237Z,99914.00
2022-11-20T09:45:13.834Z,99913.00
2022-11-20T09:48:22.679Z,99904.00
2022-11-20T09:54:22.320Z,99831.00
2022-11-20T09:57:06.287Z,99906.00
2022-11-20T09:59:51.348Z,99891.00
2022-11-20T10:02:59.978Z,99847.00
2022-11-20T10:05:51.400Z,99875.00
2022-11-20T10:08:48.463Z,99892.00
2022-11-20T10:12:00.666Z,99887.00
2022-11-20T10:15:05.282Z,99882.00
2022-11-20T10:18:49.739Z,99886.00
2022-11-20T10:22:03.947Z,99793.00
2022-11-20T10:25:02.284Z,99799.00
2022-11-20T10:28:14.683Z,99809.00
2022-11-20T10:31:18.853Z,99822.00
2022-11-20T10:34:20.958Z,99865.00
2022-11-20T10:37:17.810Z,99835.00
2022-11-20T10:40:08.702Z,99812.00
2022-11-20T10:42:58.276Z,99861.00
2022-11-20T10:46:01.885Z,99887.00
2022-11-20T10:49:08.280Z,99851.00
2022-11-20T10:52:02.018Z,99852.00
2022-11-20T10:54:53.960Z,99836.00
2022-11-20T10:57:51.902Z,99835.00
2022-11-20T11:00:35.558Z,99867.00
2022-11-20T11:03:29.251Z,99857.00
2022-11-20T11:06:11.633Z,99849.00
2022-11-20T11:08:54.532Z,99812.00
2022-11-20T11:11:46.881Z,99832.00
2022-11-20T11:15:02.801Z,99826.00
2022-11-20T11:18:28.210Z,99825.00
2022-11-20T11:21:08.167Z,99832.00
2022-11-20T11:24:19.639Z,99776.00
2022-11-20T11:32:05.256Z,99818.00
2022-11-20T11:39:05.886Z,99780.00
2022-11-20T11:42:33.763Z,99737.00
2022-11-20T11:46:47.000Z,99778.00
2022-11-20T11:50:44.490Z,99713.00
2022-11-20T11:53:53.303Z,99709.00
2022-11-20T12:01:44.434Z,99749.00
2022-11-20T12:12:41.432Z,99749.00
2022-11-20T12:15:56.713Z,99777.00
2022-11-20T12:19:18.777Z,99758.00
2022-11-20T12:22:56.517Z,99708.00
2022-11-20T12:26:15.023Z,99726.00
2022-11-20T12:29:38.811Z,99731.00
2022-11-20T12:33:50.433Z,99682.00
2022-11-20T12:36:59.514Z,99720.00
2022-11-20T12:40:42.742Z,99673.00
2022-11-20T12:48:41.151Z,99649.00
2022-11-20T12:53:09.256Z,99708.00
2022-11-20T12:56:47.090Z,99703.00
2022-11-20T13:04:30.092Z,99636.00
2022-11-20T13:08:09.021Z,99671.00
2022-11-20T13:12:09.046Z,99660.00
2022-11-20T13:15:41.496Z,99663.00
2022-11-20T13:19:35.292Z,99573.00
2022-11-20T13:31:16.092Z,99643.00
2022-11-20T13:37:50.846Z,99581.00
2022-11-20T13:40:44.123Z,99631.00
2022-11-20T13:43:40.621Z,99648.00
2022-11-20T13:46:34.503Z,99571.00
2022-11-20T13:49:34.628Z,99608.00
2022-11-20T13:52:48.368Z,99627.00
2022-11-20T13:55:45.515Z,99576.00
2022-11-20T13:58:47.546Z,99550.00
2022-11-20T14:01:33.409Z,99561.00
2022-11-20T14:04:40.250Z,99506.00
2022-11-20T14:07:31.672Z,99577.00
2022-11-20T14:10:32.634Z,99533.00
2022-11-20T14:13:23.414Z,99575.00
2022-11-20T14:16:10.349Z,99574.00
2022-11-20T14:19:42.825Z,99571.00
2022-11-20T14:22:30.879Z,99513.00
2022-11-20T14:25:26.048Z,99481.00
2022-11-20T14:28:23.825Z,99489.00
2022-11-20T14:31:44.427Z,99548.00
2022-11-20T14:34:33.587Z,99478.00
2022-11-20T14:37:29.587Z,99544.00
2022-11-20T14:41:15.613Z,99522.00
2022-11-20T14:44:06.205Z,99516.00
2022-11-20T14:46:46.792Z,99470.00
2022-11-20T14:49:34.734Z,99469.00
2022-11-20T14:52:17.966Z,99498.00
2022-11-20T14:54:55.005Z,99506.00
2022-11-20T14:57:46.924Z,99461.00
2022-11-20T15:00:24.921Z,99469.00
2022-11-20T15:02:59.233Z,99487.00
2022-11-20T15:05:53.776Z,99496.00
2022-11-20T15:08:36.844Z,99485.00
2022-11-20T15:11:27.259Z,99450.00
2022-11-20T15:14:13.045Z,99478.00
2022-11-20T15:16:51.061Z,99465.00
2022-11-20T15:29:11.331Z,99407.00
2022-11-20T15:40:59.482Z,99420.00
2022-11-20T16:13:15.114Z,99305.00
2022-11-20T16:16:05.456Z,99357.00
2022-11-20T16:18:57.418Z,99376.00
2022-11-20T16:21:43.677Z,99294.00
2022-11-20T16:24:38.988Z,99382.00
2022-11-20T16:27:17.723Z,99368.00
2022-11-20T16:30:10.446Z,99388.00
2022-11-20T16:32:44.702Z,99372.00
2022-11-20T16:35:26.888Z,99281.00
2022-11-20T16:38:09.707Z,99304.00
2022-11-20T16:40:46.765Z,99373.00
2022-11-20T16:43:26.345Z,99288.00
2022-11-20T16:46:51.784Z,99376.00
2022-11-20T16:49:38.797Z,99357.00
2022-11-20T16:52:22.412Z,99377.00
2022-11-20T16:55:23.975Z,99362.00
2022-11-20T17:01:23.216Z,99311.00
2022-11-20T17:04:23.315Z,99309.00
2022-11-20T17:07:45.684Z,99268.00
2022-11-20T17:10:29.701Z,99317.00
2022-11-20T17:13:13.239Z,99252.00
2022-11-20T17:16:10.718Z,99304.00
2022-11-20T17:19:10.402Z,99218.00
2022-11-20T17:21:57.214Z,99312.00
2022-11-20T17:25:22.866Z,99299.00
2022-11-20T17:28:24.086Z,99207.00
2022-11-20T17:34:48.181Z,99273.00
2022-11-20T17:37:32.496Z,99209.00
2022-11-20T17:40:35.238Z,99240.00
2022-11-20T17:43:59.319Z,99244.00
2022-11-20T17:46:56.809Z,99175.00
2022-11-20T17:49:48.490Z,99161.00
2022-11-20T17:53:19.547Z,99207.00
2022-11-20T17:56:31.661Z,99201.00
2022-11-20T18:01:37.601Z,99207.00
2022-11-20T18:50:49.591Z,99026.00
2022-11-20T18:54:53.534Z,99072.00
2022-11-20T19:02:44.380Z,99021.00
2022-11-20T19:05:28.891Z,99049.00
2022-11-20T19:08:08.167Z,99037.00
2022-11-20T19:11:31.271Z,99036.00
2022-11-20T19:14:52.336Z,98996.00
2022-11-20T19:17:39.734Z,99044.00
2022-11-20T19:20:18.836Z,98952.00
2022-11-20T19:23:04.460Z,98931.00
2022-11-20T19:26:04.233Z,98910.00
2022-11-20T19:29:02.318Z,98970.00
2022-11-20T19:32:54.859Z,98988.00
2022-11-20T19:35:49.817Z,98926.00
2022-11-20T19:38:53.104Z,98919.00
2022-11-20T19:41:46.165Z,98901.00
2022-11-20T19:44:53.736Z,98911.00
2022-11-20T19:48:09.701Z,98918.00
2022-11-20T19:50:51.494Z,98963.00
2022-11-20T19:53:53.254Z,98968.00
2022-11-20T19:58:05.973Z,98949.00
2022-11-20T20:00:43.585Z,98968.00
2022-11-20T20:03:18.810Z,98958.00
2022-11-20T20:06:29.017Z,98954.00
2022-11-20T20:09:17.507Z,98864.00
2022-11-20T20:12:09.445Z,98890.00
2022-11-20T20:14:59.775Z,98892.00
2022-11-20T20:18:06.370Z,98886.00
2022-11-20T20:20:42.499Z,98918.00
2022-11-20T20:23:20.349Z,98909.00
2022-11-20T20:26:04.930Z,98940.00
2022-11-20T20:28:58.916Z,98908.00
2022-11-20T20:35:12.249Z,98956.00
2022-11-20T20:38:05.219Z,98981.00
2022-11-20T20:40:56.337Z,98969.00
2022-11-20T20:43:58.396Z,98968.00
2022-11-20T20:46:51.261Z,98929.00
2022-11-20T20:49:28.330Z,98936.00
2022-11-20T20:52:09.833Z,98946.00
2022-11-20T20:54:45.476Z,98987.00
2022-11-20T20:57:21.832Z,98979.00
2022-11-20T21:03:17.877Z,98922.00
2022-11-20T21:06:11.760Z,98986.00
2022-11-20T21:08:51.697Z,99012.00
2022-11-20T21:11:51.013Z,99021.00
2022-11-20T21:14:58.543Z,98958.00
2022-11-20T21:18:09.193Z,98968.00
2022-11-20T21:21:51.778Z,99052.00
2022-11-20T21:27:46.914Z,98963.00
2022-11-20T21:31:12.181Z,99056.00
2022-11-20T21:34:03.068Z,98994.00
2022-11-20T21:36:54.534Z,98992.00
2022-11-20T21:39:54.289Z,98994.00
2022-11-20T21:42:35.660Z,99013.00
2022-11-20T21:45:25.335Z,99077.00
2022-11-20T21:48:40.954Z,99078.00
2022-11-20T21:51:41.345Z,99030.00
2022-11-20T21:54:28.480Z,99094.00
2022-11-20T21:58:20.428Z,99078.00
2022-11-20T22:04:11.339Z,98998.00
2022-11-20T22:07:06.270Z,99101.00
2022-11-20T22:10:13.100Z,99051.00
2022-11-20T22:13:26.060Z,99018.00
2022-11-20T22:16:13.762Z,99117.00
2022-11-20T22:19:23.907Z,99070.00
2022-11-20T22:22:32.653Z,99054.00
2022-11-20T22:25:24.895Z,99035.00
2022-11-20T22:28:15.403Z,99122.00
2022-11-20T22:30:58.195Z,99116.00
2022-11-20T22:33:47.652Z,99077.00
2022-11-20T22:36:28.744Z,99151.00
2022-11-20T22:39:07.445Z,99124.00
2022-11-20T22:41:42.194Z,99150.00
2022-11-20T22:44:19.579Z,99142.00
2022-11-20T22:46:55.355Z,99156.00
2022-11-20T22:49:38.170Z,99160.00
2022-11-20T22:52:14.663Z,99109.00
2022-11-20T22:55:16.260Z,99105.00
2022-11-20T22:57:54.081Z,99120.00
2022-11-20T23:01:02.375Z,99144.00
2022-11-20T23:04:29.757Z,99183.00
2022-11-20T23:06:39.077Z,99093.00
2022-11-20T23:09:18.316Z,99126.00
2022-11-20T23:11:57.869Z,99176.00
2022-11-20T23:14:35.434Z,99133.00
2022-11-20T23:17:17.658Z,99130.00
2022-11-20T23:19:55.652Z,99156.00
2022-11-20T23:22:30.497Z,99221.00
2022-11-20T23:25:30.407Z,99141.00
2022-11-20T23:28:53.181Z,99211.00
2022-11-20T23:31:32.274Z,99207.00
2022-11-20T23:34:15.099Z,99191.00
2022-11-20T23:37:11.073Z,99201.00
2022-11-20T23:39:53.020Z,99227.00
2022-11-20T23:42:34.350Z,99173.00
2022-11-20T23:45:13.126Z,99187.00
2022-11-20T23:47:47.202Z,99223.00
2022-11-20T23:50:25.750Z,99258.00
2022-11-20T23:53:02.932Z,99238.00
2022-11-20T23:55:46.029Z,99168.00
2022-11-20T23:58:40.148Z,99225.00
